createdAt,value
2019-05-25T16:12:07.879Z,100124.98
2019-05-25T16:14:35.370Z,100134.38
2019-05-25T16:17:02.716Z,100134.24
2019-05-25T16:19:33.513Z,100127.39
2019-05-25T16:22:01.070Z,100124.20
2019-05-25T16:24:28.422Z,100118.36
2019-05-25T16:26:56.162Z,100122.75
2019-05-25T16:29:24.117Z,100121.42
2019-05-25T16:31:52.457Z,100122.12
2019-05-25T16:34:19.741Z,100123.77
2019-05-25T16:36:47.036Z,100121.47
2019-05-25T16:39:14.407Z,100121.50
2019-05-25T16:41:41.837Z,100117.45
2019-05-25T16:44:09.180Z,100111.55
2019-05-25T16:46:36.461Z,100113.44
2019-05-25T16:49:03.871Z,100115.35
2019-05-25T16:51:31.163Z,100105.74
2019-05-25T16:53:58.469Z,100114.66
2019-05-25T16:56:25.758Z,100105.66
2019-05-25T16:58:55.055Z,100113.39
2019-05-25T17:01:22.817Z,100111.36
2019-05-25T17:03:51.275Z,100105.17
2019-05-25T17:06:18.633Z,100104.80
2019-05-25T17:08:45.919Z,100103.00
2019-05-25T17:11:14.225Z,100098.37
2019-05-25T17:13:41.506Z,100097.01
2019-05-25T17:16:09.060Z,100098.76
2019-05-25T17:18:36.686Z,100102.47
2019-05-25T17:21:03.997Z,100102.69
2019-05-25T17:23:31.429Z,100097.84
2019-05-25T17:25:58.856Z,100093.73
2019-05-25T17:28:26.152Z,100097.04
2019-05-25T17:30:53.507Z,100092.28
2019-05-25T17:33:20.784Z,100098.98
2019-05-25T17:35:48.273Z,100097.47
2019-05-25T17:38:18.400Z,100102.47
2019-05-25T17:40:46.079Z,100094.85
2019-05-25T17:43:13.487Z,100091.97
2019-05-25T17:45:40.777Z,100094.86
2019-05-25T17:48:08.065Z,100096.75
2019-05-25T17:50:35.433Z,100095.47
2019-05-25T17:53:03.074Z,100102.17
2019-05-25T17:55:30.358Z,100102.34
2019-05-25T17:57:58.770Z,100106.42
2019-05-25T18:00:49.390Z,100105.42
2019-05-25T18:03:16.894Z,100109.98
2019-05-25T18:05:46.336Z,100117.63
2019-05-25T18:08:13.636Z,100115.82
2019-05-25T18:10:52.911Z,100115.88
2019-05-25T18:13:10.132Z,100112.41
2019-05-25T18:15:37.442Z,100115.23
2019-05-25T18:18:05.058Z,100113.81
2019-05-25T18:20:32.455Z,100106.39
2019-05-25T18:22:59.843Z,100118.45
2019-05-25T18:25:27.128Z,100121.67
2019-05-25T18:27:54.514Z,100130.61
2019-05-25T18:30:23.693Z,100126.91
2019-05-25T18:32:51.321Z,100129.00
2019-05-25T18:35:20.238Z,100121.78
2019-05-25T18:37:49.352Z,100121.67
2019-05-25T18:40:19.056Z,100124.82
2019-05-25T18:42:48.424Z,100125.77
2019-05-25T18:45:17.568Z,100125.88
2019-05-25T18:47:46.798Z,100120.92
2019-05-25T18:50:16.309Z,100125.61
2019-05-25T18:52:46.579Z,100122.34
2019-05-25T18:55:15.873Z,100126.30
2019-05-25T18:57:45.767Z,100124.80
2019-05-25T19:00:16.607Z,100127.41
2019-05-25T19:02:45.181Z,100119.89
2019-05-25T19:05:13.859Z,100120.76
2019-05-25T19:07:46.823Z,100125.91
2019-05-25T19:10:17.699Z,100127.05
2019-05-25T19:12:45.371Z,100128.89
2019-05-25T19:15:15.796Z,100122.84
2019-05-25T19:17:45.008Z,100132.03
2019-05-25T19:20:20.670Z,100125.03
2019-05-25T19:22:46.787Z,100126.13
2019-05-25T19:25:19.181Z,100132.23
2019-05-25T19:27:47.352Z,100126.84
2019-05-25T19:30:18.281Z,100135.45
2019-05-25T19:32:47.367Z,100137.85
2019-05-25T19:35:14.742Z,100143.05
2019-05-25T19:37:43.499Z,100145.37
2019-05-25T19:40:11.877Z,100142.29
2019-05-25T19:42:39.681Z,100141.58
2019-05-25T19:45:18.246Z,100147.99
2019-05-25T19:47:47.100Z,100152.69
2019-05-25T19:50:19.399Z,100152.80
2019-05-25T19:52:48.543Z,100154.52
2019-05-25T19:55:18.316Z,100155.69
2019-05-25T19:57:51.501Z,100152.50
2019-05-25T20:00:22.242Z,100163.09
2019-05-25T20:02:51.516Z,100168.00
2019-05-25T20:05:20.737Z,100167.06
2019-05-25T20:07:51.057Z,100171.12
2019-05-25T20:10:20.552Z,100166.22
2019-05-25T20:12:50.041Z,100172.10
2019-05-25T20:15:23.779Z,100165.31
2019-05-25T20:17:52.761Z,100172.93
2019-05-25T20:20:20.538Z,100164.50
2019-05-25T20:22:47.776Z,100161.70
2019-05-25T20:25:15.237Z,100169.23
2019-05-25T20:27:42.625Z,100164.29
2019-05-25T20:30:10.119Z,100166.83
2019-05-25T20:32:37.393Z,100164.57
2019-05-25T20:35:04.858Z,100168.84
2019-05-25T20:37:33.004Z,100176.84
2019-05-25T20:40:00.371Z,100175.20
2019-05-25T20:42:27.624Z,100175.53
2019-05-25T20:44:54.860Z,100176.87
2019-05-25T20:47:22.164Z,100175.06
2019-05-25T20:49:49.386Z,100170.91
2019-05-25T20:52:16.674Z,100176.39
2019-05-25T20:54:44.077Z,100173.05
2019-05-25T20:57:11.338Z,100172.24
2019-05-25T20:59:38.719Z,100166.56
2019-05-25T21:02:06.033Z,100169.26
2019-05-25T21:04:34.395Z,100174.22
2019-05-25T21:07:01.764Z,100167.42
2019-05-25T21:09:29.130Z,100178.20
2019-05-25T21:11:56.535Z,100174.20
2019-05-25T21:14:23.888Z,100174.53
2019-05-25T21:16:51.180Z,100178.88
2019-05-25T21:19:18.520Z,100171.71
2019-05-25T21:21:45.860Z,100169.41
2019-05-25T21:24:13.230Z,100170.22
2019-05-25T21:26:40.541Z,100161.58
2019-05-25T21:29:07.807Z,100160.41
2019-05-25T21:31:35.091Z,100163.56
2019-05-25T21:34:02.504Z,100164.23
2019-05-25T21:36:30.092Z,100156.27
2019-05-25T21:38:57.506Z,100164.23
2019-05-25T21:41:24.882Z,100163.55
2019-05-25T21:43:52.106Z,100156.77
2019-05-25T21:46:20.496Z,100159.07
2019-05-25T21:48:47.747Z,100160.56
2019-05-25T21:51:15.032Z,100161.87
2019-05-25T21:53:42.274Z,100167.53
2019-05-25T21:56:09.597Z,100164.52
2019-05-25T21:58:36.869Z,100160.88
2019-05-25T22:01:04.940Z,100158.89
2019-05-25T22:03:33.293Z,100159.68
2019-05-25T22:06:00.729Z,100152.05
2019-05-25T22:08:27.970Z,100145.23
2019-05-25T22:10:55.341Z,100151.73
2019-05-25T22:13:28.441Z,100144.36
2019-05-25T22:15:51.925Z,100145.89
2019-05-25T22:18:19.226Z,100146.67
2019-05-25T22:20:46.675Z,100143.74
2019-05-25T22:23:13.966Z,100145.20
2019-05-25T22:25:41.710Z,100136.06
2019-05-25T22:28:08.987Z,100138.09
2019-05-25T22:30:36.212Z,100130.42
2019-05-25T22:33:03.610Z,100140.05
2019-05-25T22:35:30.890Z,100142.20
2019-05-25T22:37:58.155Z,100145.47
2019-05-25T22:40:25.624Z,100136.20
2019-05-25T22:42:52.890Z,100133.92
2019-05-25T22:45:20.149Z,100128.59
2019-05-25T22:47:47.458Z,100127.95
2019-05-25T22:50:14.730Z,100127.93
2019-05-25T22:52:41.994Z,100114.81
2019-05-25T22:55:10.146Z,100115.94
2019-05-25T22:57:37.438Z,100114.02
2019-05-25T23:00:06.369Z,100109.05
2019-05-25T23:02:33.703Z,100122.17
2019-05-25T23:05:01.005Z,100115.37
2019-05-25T23:07:28.341Z,100103.63
2019-05-25T23:09:55.569Z,100097.98
2019-05-25T23:12:22.938Z,100100.93
2019-05-25T23:14:50.187Z,100091.82
2019-05-25T23:17:17.407Z,100089.07
2019-05-25T23:19:44.647Z,100093.09
2019-05-25T23:22:11.931Z,100089.44
2019-05-25T23:24:39.215Z,100082.94
2019-05-25T23:27:06.461Z,100084.41
2019-05-25T23:29:33.707Z,100087.25
2019-05-25T23:32:01.113Z,100081.81
2019-05-25T23:34:28.348Z,100083.96
2019-05-25T23:36:55.723Z,100085.63
2019-05-25T23:39:22.998Z,100074.87
2019-05-25T23:41:50.272Z,100076.99
2019-05-25T23:44:18.114Z,100069.35
2019-05-25T23:46:45.379Z,100072.80
2019-05-25T23:49:12.654Z,100070.66
2019-05-25T23:51:39.970Z,100077.61
2019-05-25T23:54:07.286Z,100064.83
2019-05-25T23:56:34.675Z,100065.12
2019-05-25T23:59:02.024Z,100055.86
